createdAt,value
2022-09-03T02:15:17.450Z,15.4
2022-09-03T02:26:39.200Z,15.2
2022-09-03T06:37:52.230Z,16.5
2022-09-03T07:56:26.630Z,16.9
2022-09-03T08:01:51.302Z,16.7
2022-09-03T08:13:02.987Z,16.7
2022-09-03T08:19:00.948Z,16.8
2022-09-03T08:24:13.322Z,16.4
2022-09-03T10:10:28.583Z,17.2
2022-09-03T11:51:36.733Z,20
2022-09-03T14:01:35.548Z,21.2
2022-09-03T14:06:58.035Z,21.4
2022-09-03T14:12:48.521Z,21.3
2022-09-03T14:18:25.910Z,22
2022-09-03T14:24:06.514Z,22
2022-09-03T14:29:35.848Z,21.6
2022-09-03T14:35:17.777Z,22.3
2022-09-03T14:40:47.989Z,22.2
2022-09-03T14:46:33.861Z,22
2022-09-03T14:57:47.990Z,21.5
2022-09-03T15:03:23.816Z,21.6
2022-09-03T15:09:06.010Z,22.4
2022-09-03T15:14:40.235Z,22
2022-09-03T15:20:08.971Z,22.7
2022-09-03T15:25:43.574Z,22.4
2022-09-03T15:31:37.260Z,22.6
2022-09-03T15:37:09.000Z,22.8
2022-09-03T15:42:35.188Z,22.1
2022-09-03T15:48:29.806Z,22.5
2022-09-03T15:54:10.373Z,22.7
2022-09-03T15:59:38.651Z,21.9
2022-09-03T16:05:19.163Z,22
2022-09-03T16:10:58.288Z,21.9
2022-09-03T16:16:36.733Z,21.9
2022-09-03T16:21:56.012Z,21.9
2022-09-03T16:27:30.036Z,22.2
2022-09-03T16:33:19.578Z,21.7
2022-09-03T16:38:38.422Z,22
2022-09-03T16:44:20.672Z,22.7
2022-09-03T16:50:15.137Z,21.8
2022-09-03T16:55:41.470Z,21.3
2022-09-03T17:01:07.938Z,21.3
2022-09-03T17:07:01.410Z,21.5
2022-09-03T17:12:28.178Z,21
2022-09-03T17:17:47.864Z,20.2
2022-09-03T17:23:40.172Z,20.3
2022-09-03T17:29:15.528Z,20.5
2022-09-03T17:34:34.799Z,20.1
2022-09-03T17:40:30.564Z,19.6
2022-09-03T17:46:02.766Z,18.9
2022-09-03T17:51:22.040Z,19.1
2022-09-03T17:57:02.655Z,19.3
2022-09-03T18:13:35.951Z,18.8
2022-09-03T18:19:29.357Z,18.5
2022-09-03T18:24:50.988Z,18.4
2022-09-03T18:36:06.025Z,18.3
2022-09-03T18:41:56.085Z,18.2
2022-09-03T18:53:10.421Z,17.9
2022-09-03T18:58:35.963Z,17.8
2022-09-03T19:04:16.189Z,17.9
2022-09-03T19:09:52.506Z,17.8
2022-09-03T19:15:29.262Z,17.7
2022-09-03T19:21:03.275Z,17.9
2022-09-03T19:26:34.213Z,17.7
2022-09-03T19:32:13.074Z,17.6
2022-09-03T19:37:45.442Z,17.4
2022-09-03T19:43:19.576Z,17.4
2022-09-03T19:49:01.737Z,17.5
2022-09-03T19:54:38.502Z,17.5
2022-09-03T20:11:23.967Z,17.2
2022-09-03T20:17:02.638Z,17.3
